createdAt,value
2022-08-01T00:00:03.701Z,59.80
2022-08-01T00:02:31.886Z,59.80
2022-08-01T00:04:58.804Z,59.90
2022-08-01T00:07:25.444Z,59.80
2022-08-01T00:09:52.429Z,59.90
2022-08-01T00:12:19.111Z,59.90
2022-08-01T00:14:45.773Z,59.90
2022-08-01T00:17:12.435Z,59.90
2022-08-01T00:19:39.073Z,60.00
2022-08-01T00:22:07.091Z,60.00
2022-08-01T00:24:34.200Z,60.00
2022-08-01T00:27:00.839Z,60.00
2022-08-01T00:30:09.523Z,60.00
2022-08-01T00:32:14.190Z,60.00
2022-08-01T00:34:40.878Z,60.00
2022-08-01T00:37:07.628Z,60.00
2022-08-01T00:39:34.440Z,60.10
2022-08-01T00:42:07.343Z,60.10
2022-08-01T00:44:34.372Z,60.00
2022-08-01T00:47:01.274Z,60.10
2022-08-01T00:49:28.780Z,60.10
2022-08-01T00:51:56.731Z,60.10
2022-08-01T00:54:25.687Z,60.10
2022-08-01T00:56:52.407Z,60.10
2022-08-01T00:59:21.593Z,60.10
2022-08-01T01:01:48.408Z,60.10
2022-08-01T01:04:17.649Z,60.20
2022-08-01T01:07:10.566Z,60.20
2022-08-01T01:10:05.745Z,60.20
2022-08-01T01:12:50.226Z,60.20
2022-08-01T01:15:22.393Z,60.20
2022-08-01T01:18:08.022Z,60.20
2022-08-01T01:20:44.037Z,60.20
2022-08-01T01:23:30.086Z,60.20
2022-08-01T01:26:16.816Z,60.30
2022-08-01T01:29:04.783Z,60.20
2022-08-01T01:31:37.070Z,60.30
2022-08-01T01:34:05.435Z,60.20
2022-08-01T01:36:33.349Z,60.30
2022-08-01T01:39:01.510Z,60.30
2022-08-01T01:41:29.523Z,60.30
2022-08-01T01:43:57.470Z,60.30
2022-08-01T01:46:28.010Z,60.30
2022-08-01T01:48:57.699Z,60.30
2022-08-01T01:51:26.574Z,60.30
2022-08-01T01:53:55.694Z,60.30
2022-08-01T01:56:23.755Z,60.30
2022-08-01T01:58:54.757Z,60.30
2022-08-01T02:01:58.198Z,60.30
2022-08-01T02:04:12.283Z,60.30
2022-08-01T02:06:40.151Z,60.30
2022-08-01T02:09:09.658Z,60.30
2022-08-01T02:11:37.761Z,60.30
2022-08-01T02:14:25.433Z,60.30
2022-08-01T02:16:52.159Z,60.20
2022-08-01T02:19:20.499Z,60.30
2022-08-01T02:21:49.946Z,60.30
2022-08-01T02:24:32.650Z,60.40
2022-08-01T02:27:05.758Z,60.30
2022-08-01T02:29:40.505Z,60.20
2022-08-01T02:32:12.763Z,60.30
2022-08-01T02:34:39.916Z,60.30
2022-08-01T02:37:07.545Z,60.40
2022-08-01T02:39:37.690Z,60.30
2022-08-01T02:42:08.725Z,60.20
2022-08-01T02:44:39.770Z,60.30
2022-08-01T02:47:06.842Z,60.30
2022-08-01T02:49:37.391Z,60.30
2022-08-01T02:52:08.760Z,60.30
2022-08-01T02:54:37.678Z,60.30
2022-08-01T02:57:06.780Z,60.30
2022-08-01T02:59:38.130Z,60.30
2022-08-01T03:02:09.133Z,60.30
2022-08-01T03:04:38.931Z,60.30
2022-08-01T03:07:07.447Z,60.30
2022-08-01T03:09:39.354Z,60.30
2022-08-01T03:12:08.409Z,60.30
2022-08-01T03:14:38.915Z,60.30
2022-08-01T03:17:06.738Z,60.30
2022-08-01T03:19:35.259Z,60.30
2022-08-01T03:22:07.297Z,60.30
2022-08-01T03:24:35.750Z,60.20
2022-08-01T03:27:03.667Z,60.20
2022-08-01T03:29:32.683Z,60.20
2022-08-01T03:32:01.015Z,60.20
2022-08-01T03:34:28.402Z,60.30
2022-08-01T03:37:05.957Z,60.20
2022-08-01T03:39:43.522Z,60.20
2022-08-01T03:42:15.077Z,60.20
2022-08-01T03:44:44.374Z,60.20
2022-08-01T03:47:12.847Z,60.20
2022-08-01T03:49:44.065Z,60.20
2022-08-01T03:52:11.610Z,60.20
2022-08-01T03:54:42.171Z,60.20
2022-08-01T03:57:35.572Z,60.20
2022-08-01T03:59:59.331Z,60.20
2022-08-01T04:02:28.197Z,60.20
2022-08-01T04:04:55.712Z,60.20
2022-08-01T04:07:27.110Z,60.20
2022-08-01T04:09:54.098Z,60.20
2022-08-01T04:12:21.274Z,60.10
2022-08-01T04:14:48.304Z,60.20
2022-08-01T04:17:15.782Z,60.20
2022-08-01T04:19:43.340Z,60.20
2022-08-01T04:22:12.205Z,60.10
2022-08-01T04:24:40.290Z,60.20
2022-08-01T04:27:18.058Z,60.20
2022-08-01T04:30:06.367Z,60.10
2022-08-01T04:32:36.147Z,60.20
2022-08-01T04:35:23.210Z,60.10
2022-08-01T04:37:55.114Z,60.20
2022-08-01T04:40:24.984Z,60.10
2022-08-01T04:42:51.839Z,60.10
2022-08-01T04:45:19.305Z,60.10
2022-08-01T04:47:48.696Z,60.10
2022-08-01T04:50:15.635Z,60.10
2022-08-01T04:52:43.088Z,60.10
2022-08-01T04:55:11.119Z,60.10
2022-08-01T04:57:40.838Z,60.10
2022-08-01T05:00:08.656Z,60.10
2022-08-01T05:02:35.371Z,60.10
2022-08-01T05:05:02.043Z,56.30
2022-08-01T05:07:28.657Z,56.70
2022-08-01T05:09:55.884Z,57.70
2022-08-01T05:12:22.590Z,58.10
2022-08-01T05:14:49.218Z,58.40
2022-08-01T05:17:15.920Z,58.70
2022-08-01T05:19:43.830Z,58.80
2022-08-01T05:22:11.024Z,58.70
2022-08-01T05:24:40.310Z,58.70
2022-08-01T05:27:11.650Z,58.90
2022-08-01T05:29:44.376Z,59.20
2022-08-01T05:32:11.619Z,59.70
2022-08-01T05:34:38.243Z,59.30
2022-08-01T05:37:04.938Z,59.40
2022-08-01T05:39:31.623Z,59.60
2022-08-01T05:41:58.285Z,61.20
2022-08-01T05:44:24.950Z,60.70
2022-08-01T05:46:51.876Z,59.90
2022-08-01T05:49:18.540Z,59.20
2022-08-01T05:51:45.236Z,58.70
2022-08-01T05:54:11.945Z,58.00
2022-08-01T05:56:38.566Z,57.80
2022-08-01T05:59:05.267Z,57.80
2022-08-01T06:01:32.011Z,57.50
2022-08-01T06:03:58.638Z,57.40
2022-08-01T06:06:25.689Z,57.10
2022-08-01T06:08:52.918Z,57.20
2022-08-01T06:11:19.611Z,57.30
2022-08-01T06:13:48.862Z,57.40
2022-08-01T06:16:16.835Z,57.40
2022-08-01T06:18:43.516Z,57.40
2022-08-01T06:21:10.192Z,57.40
2022-08-01T06:23:36.950Z,57.50
2022-08-01T06:26:03.755Z,57.50
2022-08-01T06:28:30.642Z,57.60
2022-08-01T06:30:59.339Z,57.60
2022-08-01T06:33:26.720Z,57.60
2022-08-01T06:35:53.432Z,57.60
2022-08-01T06:38:20.134Z,57.60
2022-08-01T06:40:46.896Z,57.70
2022-08-01T06:43:13.653Z,57.70
2022-08-01T06:45:40.831Z,57.70
2022-08-01T06:48:07.700Z,57.70
2022-08-01T06:50:36.667Z,57.70
2022-08-01T06:53:03.795Z,57.80
2022-08-01T06:55:30.483Z,57.80
2022-08-01T06:57:57.096Z,57.90
2022-08-01T07:00:25.783Z,57.80
2022-08-01T07:02:55.546Z,57.90
2022-08-01T07:05:22.895Z,57.90
2022-08-01T07:07:50.122Z,57.90
2022-08-01T07:10:17.585Z,57.90
2022-08-01T07:12:44.293Z,57.90
2022-08-01T07:15:12.040Z,57.90
2022-08-01T07:17:43.120Z,57.90
2022-08-01T07:20:11.901Z,58.00
2022-08-01T07:22:40.927Z,57.90
2022-08-01T07:25:08.534Z,58.00
2022-08-01T07:27:35.877Z,57.90
2022-08-01T07:30:02.839Z,58.00
2022-08-01T07:32:30.278Z,58.00
2022-08-01T07:34:57.409Z,58.00
2022-08-01T07:37:47.950Z,58.10
2022-08-01T07:40:12.459Z,58.00
2022-08-01T07:42:39.198Z,58.10
2022-08-01T07:45:06.197Z,58.10
2022-08-01T07:47:32.857Z,58.10
2022-08-01T07:50:03.884Z,58.10
2022-08-01T07:52:31.204Z,58.10
2022-08-01T07:54:58.892Z,58.10
2022-08-01T07:57:26.366Z,58.10
2022-08-01T07:59:53.190Z,58.10
2022-08-01T08:02:20.423Z,58.10
2022-08-01T08:04:49.137Z,58.20
2022-08-01T08:07:16.303Z,58.20
2022-08-01T08:09:43.062Z,58.20
2022-08-01T08:12:10.218Z,58.20
2022-08-01T08:14:37.229Z,58.20
2022-08-01T08:17:04.918Z,58.20
2022-08-01T08:19:37.658Z,58.20
2022-08-01T08:22:06.226Z,58.20
2022-08-01T08:24:33.126Z,58.20
2022-08-01T08:27:01.076Z,58.20
2022-08-01T08:29:30.623Z,58.20
2022-08-01T08:31:58.514Z,58.20
2022-08-01T08:34:27.029Z,58.20
2022-08-01T08:36:55.508Z,58.20
2022-08-01T08:39:22.162Z,58.20
2022-08-01T08:41:50.063Z,58.20
2022-08-01T08:44:18.185Z,58.20
2022-08-01T08:46:50.164Z,58.20
2022-08-01T08:49:17.989Z,58.20
2022-08-01T08:51:47.509Z,58.20
2022-08-01T08:54:15.431Z,58.30
2022-08-01T08:56:43.978Z,58.30
2022-08-01T08:59:16.928Z,58.30
2022-08-01T09:01:44.644Z,58.30
2022-08-01T09:04:11.956Z,58.30
2022-08-01T09:06:39.227Z,58.30
2022-08-01T09:09:07.247Z,58.30
2022-08-01T09:11:34.383Z,58.30
2022-08-01T09:14:16.258Z,58.30
2022-08-01T09:16:48.509Z,58.30
2022-08-01T09:19:40.625Z,58.30
2022-08-01T09:22:10.324Z,58.30
2022-08-01T09:24:37.864Z,58.30
2022-08-01T09:27:22.761Z,58.30
2022-08-01T09:30:01.316Z,58.30
2022-08-01T09:32:38.751Z,58.30
2022-08-01T09:35:30.151Z,58.30
2022-08-01T09:38:22.070Z,58.30
2022-08-01T09:40:49.945Z,58.30
2022-08-01T09:43:17.514Z,58.30
2022-08-01T09:45:45.869Z,58.30
2022-08-01T09:48:18.118Z,58.30
2022-08-01T09:50:46.971Z,58.30
2022-08-01T09:53:21.520Z,58.30
2022-08-01T09:56:10.528Z,58.30
2022-08-01T09:59:00.897Z,58.30
2022-08-01T10:01:41.884Z,58.30
2022-08-01T10:04:12.036Z,58.30
2022-08-01T10:06:41.490Z,58.30
2022-08-01T10:09:08.691Z,58.30
2022-08-01T10:11:39.873Z,58.20
2022-08-01T10:14:08.120Z,58.30
2022-08-01T10:16:38.415Z,58.30
2022-08-01T10:19:11.348Z,58.30
2022-08-01T10:21:56.203Z,58.30
2022-08-01T10:24:26.512Z,58.30
2022-08-01T10:26:56.387Z,58.30
2022-08-01T10:29:59.003Z,58.30
2022-08-01T10:32:12.616Z,58.30
2022-08-01T10:34:39.370Z,58.30
2022-08-01T10:37:13.675Z,58.30
2022-08-01T10:39:40.937Z,58.30
2022-08-01T10:42:15.825Z,58.30
2022-08-01T10:44:43.390Z,58.30
2022-08-01T10:47:16.151Z,58.30
2022-08-01T10:49:51.905Z,58.30
2022-08-01T10:52:19.446Z,58.30
2022-08-01T10:54:52.782Z,58.30
2022-08-01T10:57:22.941Z,58.30
2022-08-01T11:00:01.112Z,58.30
2022-08-01T11:02:32.978Z,58.30
2022-08-01T11:05:05.423Z,58.30
2022-08-01T11:07:46.685Z,58.30
2022-08-01T11:10:36.273Z,58.30
2022-08-01T11:13:06.537Z,58.30
2022-08-01T11:15:33.512Z,58.40
2022-08-01T11:18:02.480Z,58.30
2022-08-01T11:20:32.067Z,58.30
2022-08-01T11:22:58.650Z,58.40
2022-08-01T11:26:05.247Z,58.30
2022-08-01T11:28:15.487Z,58.30
2022-08-01T11:30:45.745Z,58.30
2022-08-01T11:33:13.826Z,58.30
2022-08-01T11:36:12.397Z,58.30
2022-08-01T11:38:43.419Z,58.30
2022-08-01T11:41:37.186Z,58.30
2022-08-01T11:44:14.537Z,58.30
2022-08-01T11:46:57.923Z,58.30
2022-08-01T11:49:38.818Z,58.30
2022-08-01T11:52:10.502Z,58.30
2022-08-01T11:54:39.723Z,58.30
2022-08-01T11:57:11.124Z,58.30
2022-08-01T11:59:41.090Z,58.30
2022-08-01T12:02:30.423Z,58.30
2022-08-01T12:05:05.079Z,58.30
2022-08-01T12:07:34.017Z,58.30
2022-08-01T12:10:02.146Z,58.30
2022-08-01T12:12:30.069Z,58.30
2022-08-01T12:15:00.592Z,58.30
2022-08-01T12:17:35.462Z,58.30
2022-08-01T12:20:07.334Z,58.30
2022-08-01T12:22:34.469Z,58.30
2022-08-01T12:25:15.281Z,58.20
2022-08-01T12:27:44.686Z,58.30
2022-08-01T12:30:14.270Z,58.30
2022-08-01T12:32:43.119Z,58.20
2022-08-01T12:35:18.511Z,58.20
2022-08-01T12:37:47.859Z,58.20
2022-08-01T12:40:21.922Z,58.20
2022-08-01T12:42:51.297Z,58.20
2022-08-01T12:45:24.914Z,58.20
2022-08-01T12:47:53.108Z,58.30
2022-08-01T12:50:25.065Z,58.20
2022-08-01T12:52:51.890Z,58.20
2022-08-01T12:55:25.134Z,58.20
2022-08-01T12:58:15.484Z,58.80
2022-08-01T13:00:45.103Z,58.20
2022-08-01T13:03:16.450Z,58.30
2022-08-01T13:05:57.478Z,58.30
2022-08-01T13:08:30.960Z,58.30
2022-08-01T13:11:15.367Z,58.20
2022-08-01T13:13:51.626Z,58.30
2022-08-01T13:16:27.844Z,58.30
2022-08-01T13:19:05.615Z,58.30
2022-08-01T13:21:34.621Z,58.20
2022-08-01T13:24:25.087Z,58.20
2022-08-01T13:27:01.281Z,58.20
2022-08-01T13:29:42.153Z,58.20
2022-08-01T13:32:28.790Z,58.20
2022-08-01T13:35:10.666Z,58.20
2022-08-01T13:37:38.547Z,58.20
2022-08-01T13:40:10.046Z,58.20
2022-08-01T13:42:37.565Z,58.20
2022-08-01T13:45:13.879Z,58.20
2022-08-01T13:48:03.898Z,58.20
2022-08-01T13:50:31.531Z,58.20
2022-08-01T13:52:58.168Z,58.80
2022-08-01T13:55:24.837Z,58.20
2022-08-01T13:57:51.474Z,58.20
2022-08-01T14:00:18.213Z,58.20
2022-08-01T14:02:44.922Z,58.20
2022-08-01T14:05:12.068Z,58.20
2022-08-01T14:07:38.758Z,58.20
2022-08-01T14:10:19.492Z,58.20
2022-08-01T14:12:47.732Z,58.20
2022-08-01T14:15:15.086Z,58.20
2022-08-01T14:18:02.724Z,58.20
2022-08-01T14:20:29.355Z,58.20
2022-08-01T14:22:56.067Z,58.20
2022-08-01T14:25:23.987Z,58.20
2022-08-01T14:28:09.401Z,58.10
2022-08-01T14:30:36.201Z,58.20
2022-08-01T14:33:03.239Z,58.10
2022-08-01T14:35:29.975Z,58.10
2022-08-01T14:38:29.175Z,58.10
2022-08-01T14:41:00.317Z,58.10
2022-08-01T14:43:32.236Z,58.10
2022-08-01T14:45:59.945Z,58.10
2022-08-01T14:48:26.874Z,58.20
2022-08-01T14:50:53.709Z,58.20
2022-08-01T14:53:20.469Z,58.10
2022-08-01T14:55:47.205Z,58.10
2022-08-01T14:58:13.809Z,58.10
2022-08-01T15:00:40.530Z,58.10
2022-08-01T15:03:07.160Z,58.10
2022-08-01T15:05:33.897Z,58.20
2022-08-01T15:08:00.514Z,58.10
2022-08-01T15:10:27.813Z,58.10
2022-08-01T15:12:54.538Z,58.10
2022-08-01T15:15:21.949Z,58.10
2022-08-01T15:17:48.788Z,58.10
2022-08-01T15:20:15.558Z,58.10
2022-08-01T15:22:42.177Z,58.30
2022-08-01T15:25:08.889Z,58.10
2022-08-01T15:27:35.573Z,58.40
2022-08-01T15:30:02.416Z,58.40
2022-08-01T15:32:29.062Z,58.30
2022-08-01T15:34:55.861Z,58.20
2022-08-01T15:37:22.910Z,59.00
2022-08-01T15:39:50.109Z,58.40
2022-08-01T15:42:25.442Z,58.40
2022-08-01T15:44:53.332Z,58.40
2022-08-01T15:47:20.027Z,58.40
2022-08-01T15:49:46.616Z,58.80
2022-08-01T15:52:21.481Z,58.50
2022-08-01T15:54:50.030Z,58.90
2022-08-01T15:57:16.805Z,58.90
2022-08-01T15:59:43.526Z,59.10
2022-08-01T16:02:10.822Z,59.00
2022-08-01T16:04:38.926Z,59.00
2022-08-01T16:07:06.185Z,59.10
2022-08-01T16:09:33.071Z,59.30
2022-08-01T16:12:00.031Z,59.10
2022-08-01T16:14:26.782Z,59.40
2022-08-01T16:16:56.382Z,59.40
2022-08-01T16:19:24.107Z,59.50
2022-08-01T16:21:51.698Z,59.60
2022-08-01T16:24:18.667Z,59.60
2022-08-01T16:26:45.336Z,59.80
2022-08-01T16:29:12.012Z,59.90
2022-08-01T16:32:08.064Z,59.80
2022-08-01T16:34:25.248Z,59.60
2022-08-01T16:36:53.230Z,59.60
2022-08-01T16:39:23.281Z,59.60
2022-08-01T16:41:55.039Z,59.60
2022-08-01T16:44:33.243Z,59.60
2022-08-01T16:47:02.309Z,59.70
2022-08-01T16:49:29.016Z,59.60
2022-08-01T16:51:55.724Z,59.40
2022-08-01T16:54:25.263Z,59.50
2022-08-01T16:56:53.123Z,59.50
2022-08-01T16:59:19.880Z,59.50
2022-08-01T17:01:58.290Z,59.50
2022-08-01T17:04:29.551Z,59.40
2022-08-01T17:06:56.653Z,59.40
2022-08-01T17:09:23.292Z,59.30
2022-08-01T17:11:50.002Z,59.30
2022-08-01T17:14:17.737Z,59.40
2022-08-01T17:16:44.617Z,59.40
2022-08-01T17:19:11.253Z,59.60
2022-08-01T17:21:41.179Z,59.60
2022-08-01T17:24:09.139Z,59.60
2022-08-01T17:26:35.830Z,59.60
2022-08-01T17:29:02.513Z,59.60
2022-08-01T17:31:29.193Z,59.50
2022-08-01T17:33:55.786Z,59.40
2022-08-01T17:36:22.701Z,59.50
2022-08-01T17:38:49.463Z,59.50
2022-08-01T17:41:16.142Z,59.50
2022-08-01T17:43:43.489Z,59.60
2022-08-01T17:46:10.233Z,59.70
2022-08-01T17:48:38.023Z,59.90
2022-08-01T17:51:04.699Z,59.70
2022-08-01T17:53:31.521Z,59.80
2022-08-01T17:56:00.513Z,59.80
2022-08-01T17:58:36.792Z,59.80
2022-08-01T18:01:16.657Z,59.70
2022-08-01T18:03:43.608Z,59.70
2022-08-01T18:06:13.642Z,59.70
2022-08-01T18:08:41.747Z,59.70
2022-08-01T18:11:09.376Z,59.70
2022-08-01T18:13:36.295Z,59.70
2022-08-01T18:16:06.714Z,59.70
2022-08-01T18:18:34.227Z,59.80
2022-08-01T18:21:02.145Z,59.80
2022-08-01T18:23:28.944Z,59.80
2022-08-01T18:25:55.675Z,59.80
2022-08-01T18:28:32.852Z,59.80
2022-08-01T18:31:01.201Z,60.40
2022-08-01T18:33:28.166Z,59.80
2022-08-01T18:35:56.132Z,59.80
2022-08-01T18:38:29.797Z,59.80
2022-08-01T18:40:56.539Z,59.90
2022-08-01T18:54:03.416Z,57.00
2022-08-01T18:56:30.174Z,56.90
2022-08-01T18:58:56.815Z,57.10
2022-08-01T19:01:23.490Z,57.10
2022-08-01T19:03:50.272Z,57.20
2022-08-01T19:06:16.928Z,56.90
2022-08-01T19:08:44.557Z,56.40
2022-08-01T19:11:11.341Z,56.50
2022-08-01T19:13:38.556Z,56.50
2022-08-01T19:16:05.411Z,56.60
2022-08-01T19:18:33.572Z,57.30
2022-08-01T19:21:04.360Z,56.50
2022-08-01T19:23:49.546Z,56.50
2022-08-01T19:26:16.819Z,56.40
2022-08-01T19:28:46.494Z,56.50
2022-08-01T19:31:15.077Z,56.00
2022-08-01T19:33:43.217Z,55.80
2022-08-01T19:36:16.075Z,55.80
2022-08-01T19:38:43.932Z,55.10
2022-08-01T19:41:13.623Z,54.90
2022-08-01T19:43:46.170Z,54.90
2022-08-01T19:46:17.382Z,54.70
2022-08-01T19:48:47.517Z,54.50
2022-08-01T19:51:17.644Z,54.40
2022-08-01T19:53:50.228Z,54.40
2022-08-01T19:56:25.435Z,54.40
2022-08-01T19:59:00.142Z,54.30
2022-08-01T20:01:27.388Z,54.30
2022-08-01T20:03:55.637Z,54.50
2022-08-01T20:06:24.620Z,54.30
2022-08-01T20:08:54.614Z,54.30
2022-08-01T20:11:22.225Z,54.50
2022-08-01T20:13:50.258Z,55.60
2022-08-01T20:16:17.814Z,55.40
2022-08-01T20:18:44.492Z,55.40
2022-08-01T20:21:12.141Z,55.70
2022-08-01T20:23:40.042Z,55.90
2022-08-01T20:26:08.861Z,56.10
2022-08-01T20:28:41.797Z,56.10
2022-08-01T20:31:09.774Z,56.10
2022-08-01T20:33:46.044Z,56.10
2022-08-01T20:36:25.795Z,56.10
2022-08-01T20:38:55.619Z,56.40
2022-08-01T20:41:25.841Z,56.30
2022-08-01T20:43:55.077Z,56.60
2022-08-01T20:46:26.886Z,56.30
2022-08-01T20:48:58.557Z,56.20
2022-08-01T20:51:26.647Z,56.30
2022-08-01T20:53:54.124Z,56.50
2022-08-01T20:56:36.486Z,56.70
2022-08-01T20:59:09.102Z,56.70
2022-08-01T21:01:45.275Z,56.40
2022-08-01T21:04:18.441Z,56.70
2022-08-01T21:07:02.590Z,56.60
2022-08-01T21:09:39.221Z,56.10
2022-08-01T21:12:10.205Z,56.30
2022-08-01T21:14:55.766Z,56.30
2022-08-01T21:17:37.615Z,56.30
2022-08-01T21:20:07.985Z,56.40
2022-08-01T21:22:51.271Z,56.70
2022-08-01T21:25:24.145Z,56.80
2022-08-01T21:27:53.051Z,57.00
2022-08-01T21:30:19.768Z,57.30
2022-08-01T21:32:48.866Z,57.50
2022-08-01T21:35:18.460Z,57.70
2022-08-01T21:37:47.954Z,57.90
2022-08-01T21:40:20.887Z,58.10
2022-08-01T21:42:48.721Z,58.30
2022-08-01T21:45:15.509Z,58.30
2022-08-01T21:47:43.344Z,58.30
2022-08-01T21:50:10.142Z,58.50
2022-08-01T21:52:53.592Z,58.60
2022-08-01T21:55:51.529Z,59.00
2022-08-01T21:58:31.761Z,58.80
2022-08-01T22:01:10.049Z,59.30
2022-08-01T22:03:46.348Z,59.00
2022-08-01T22:06:19.268Z,59.20
2022-08-01T22:08:51.817Z,59.20
2022-08-01T22:11:24.854Z,59.40
2022-08-01T22:13:58.001Z,59.50
2022-08-01T22:16:26.596Z,59.80
2022-08-01T22:18:54.105Z,59.70
2022-08-01T22:21:20.950Z,59.90
2022-08-01T22:23:50.205Z,60.00
2022-08-01T22:26:17.805Z,60.00
2022-08-01T22:28:44.738Z,60.10
2022-08-01T22:31:12.545Z,60.30
2022-08-01T22:33:39.333Z,60.20
2022-08-01T22:36:07.021Z,60.60
2022-08-01T22:38:34.061Z,60.80
2022-08-01T22:41:06.176Z,60.70
2022-08-01T22:43:46.562Z,60.80
2022-08-01T22:46:24.983Z,60.90
2022-08-01T22:48:56.745Z,61.20
2022-08-01T22:51:37.029Z,61.20
2022-08-01T22:54:11.686Z,61.10
2022-08-01T22:56:49.426Z,61.20
2022-08-01T22:59:20.557Z,61.30
2022-08-01T23:01:50.575Z,61.40
2022-08-01T23:04:41.748Z,61.50
2022-08-01T23:07:10.569Z,61.60
2022-08-01T23:09:53.341Z,61.50
2022-08-01T23:12:24.293Z,61.80
2022-08-01T23:14:54.083Z,61.80
2022-08-01T23:17:26.852Z,61.70
2022-08-01T23:20:02.174Z,61.90
2022-08-01T23:22:32.085Z,61.90
2022-08-01T23:25:04.011Z,62.10
2022-08-01T23:28:03.834Z,62.00
2022-08-01T23:30:25.380Z,62.00
2022-08-01T23:32:52.101Z,62.10
2022-08-01T23:35:18.941Z,62.10
2022-08-01T23:37:45.735Z,62.10
2022-08-01T23:40:12.617Z,62.20
2022-08-01T23:42:39.417Z,62.30
2022-08-01T23:45:07.125Z,62.10
2022-08-01T23:47:33.775Z,62.30
2022-08-01T23:50:00.411Z,62.30
2022-08-01T23:52:32.088Z,63.20
2022-08-01T23:55:00.032Z,62.30
2022-08-01T23:57:41.164Z,62.30
